createdAt,value
2022-08-05T00:01:36.090Z,31.55
2022-08-05T00:04:16.513Z,31.71
2022-08-05T00:06:43.687Z,31.73
2022-08-05T00:09:12.685Z,31.70
2022-08-05T00:11:48.343Z,31.66
2022-08-05T00:14:17.393Z,31.70
2022-08-05T00:16:52.836Z,31.35
2022-08-05T00:19:24.862Z,31.41
2022-08-05T00:22:00.582Z,31.60
2022-08-05T00:24:30.888Z,31.12
2022-08-05T00:26:59.066Z,31.61
2022-08-05T00:29:27.628Z,30.96
2022-08-05T00:32:13.530Z,31.50
2022-08-05T00:35:04.018Z,31.06
2022-08-05T00:37:51.176Z,30.96
2022-08-05T00:40:28.190Z,31.10
2022-08-05T00:42:57.234Z,31.06
2022-08-05T00:45:28.171Z,31.27
2022-08-05T00:48:16.710Z,31.04
2022-08-05T00:50:46.057Z,31.05
2022-08-05T00:53:59.959Z,31.23
2022-08-05T00:56:07.962Z,31.13
2022-08-05T00:58:35.429Z,31.40
2022-08-05T01:01:05.898Z,31.55
2022-08-05T01:03:37.513Z,31.38
2022-08-05T01:06:05.574Z,31.40
2022-08-05T01:08:42.935Z,31.52
2022-08-05T01:11:13.638Z,31.58
2022-08-05T01:13:58.335Z,31.57
2022-08-05T01:16:33.008Z,31.42
2022-08-05T01:19:01.871Z,31.25
2022-08-05T01:21:38.243Z,31.17
2022-08-05T01:24:13.221Z,31.17
2022-08-05T01:26:48.513Z,30.91
2022-08-05T01:29:25.427Z,31.18
2022-08-05T01:31:54.513Z,31.02
2022-08-05T01:34:30.931Z,31.09
2022-08-05T01:37:06.356Z,31.29
2022-08-05T01:39:47.130Z,30.69
2022-08-05T01:42:16.658Z,31.05
2022-08-05T01:44:44.118Z,30.88
2022-08-05T01:47:12.920Z,31.01
2022-08-05T01:50:02.106Z,31.22
2022-08-05T01:52:28.667Z,31.40
2022-08-05T01:54:58.304Z,31.23
2022-08-05T01:58:29.496Z,31.23
2022-08-05T02:00:30.356Z,31.27
2022-08-05T02:02:59.546Z,31.29
2022-08-05T02:05:34.340Z,31.28
2022-08-05T02:08:03.665Z,31.20
2022-08-05T02:10:42.156Z,31.23
2022-08-05T02:13:16.157Z,31.15
2022-08-05T02:15:50.803Z,30.82
2022-08-05T02:18:33.210Z,30.88
2022-08-05T02:21:05.752Z,30.92
2022-08-05T02:23:41.477Z,30.90
2022-08-05T02:26:09.668Z,30.99
2022-08-05T02:28:41.673Z,30.90
2022-08-05T02:31:23.658Z,30.88
2022-08-05T02:33:57.808Z,30.86
2022-08-05T02:36:27.596Z,30.87
2022-08-05T02:38:55.376Z,30.92
2022-08-05T02:41:28.417Z,31.01
2022-08-05T02:44:02.726Z,30.89
2022-08-05T02:46:53.595Z,30.99
2022-08-05T02:49:27.645Z,30.83
2022-08-05T02:52:13.581Z,30.85
2022-08-05T02:54:57.927Z,30.66
2022-08-05T02:58:11.667Z,30.77
2022-08-05T03:00:16.531Z,30.65
2022-08-05T03:02:44.696Z,30.89
2022-08-05T03:05:12.033Z,30.75
2022-08-05T03:08:01.213Z,30.72
2022-08-05T03:10:27.390Z,30.67
2022-08-05T03:12:55.178Z,30.63
2022-08-05T03:15:23.270Z,30.78
2022-08-05T03:17:56.030Z,30.44
2022-08-05T03:20:25.225Z,30.57
2022-08-05T03:22:52.827Z,30.61
2022-08-05T03:25:33.586Z,30.57
2022-08-05T03:28:08.516Z,30.49
2022-08-05T03:30:35.924Z,30.60
2022-08-05T03:33:03.940Z,30.52
2022-08-05T03:35:34.031Z,30.40
2022-08-05T03:38:10.964Z,30.58
2022-08-05T03:40:45.327Z,30.62
2022-08-05T03:43:58.840Z,30.63
2022-08-05T03:46:02.528Z,30.62
2022-08-05T03:48:30.027Z,30.63
2022-08-05T03:52:37.774Z,30.60
2022-08-05T03:55:54.685Z,30.43
2022-08-05T03:56:43.477Z,30.52
2022-08-05T03:59:15.171Z,30.50
2022-08-05T04:01:48.508Z,30.26
2022-08-05T04:04:16.867Z,30.58
2022-08-05T04:06:51.174Z,30.61
2022-08-05T04:09:25.918Z,30.70
2022-08-05T04:11:56.851Z,30.59
2022-08-05T04:14:30.462Z,30.74
2022-08-05T04:17:02.977Z,30.53
2022-08-05T04:19:30.676Z,30.76
2022-08-05T04:22:09.132Z,30.92
2022-08-05T04:24:43.865Z,31.12
2022-08-05T04:27:15.284Z,31.41
2022-08-05T04:29:42.872Z,31.63
2022-08-05T04:32:10.268Z,31.56
2022-08-05T04:34:42.660Z,32.05
2022-08-05T04:37:10.990Z,32.55
2022-08-05T04:39:39.139Z,33.08
2022-08-05T04:42:07.445Z,33.16
2022-08-05T04:44:36.507Z,33.07
2022-08-05T04:47:09.400Z,33.43
2022-08-05T04:50:01.848Z,32.97
2022-08-05T04:52:27.696Z,32.40
2022-08-05T04:54:57.419Z,32.66
2022-08-05T04:57:28.729Z,32.11
2022-08-05T04:59:58.660Z,32.57
2022-08-05T05:02:36.282Z,31.78
2022-08-05T05:05:16.563Z,32.93
2022-08-05T05:07:56.663Z,33.02
2022-08-05T05:10:29.553Z,33.01
2022-08-05T05:12:57.718Z,33.35
2022-08-05T05:15:56.252Z,33.70
2022-08-05T05:18:14.924Z,32.77
2022-08-05T05:20:55.725Z,32.53
2022-08-05T05:23:25.780Z,32.35
2022-08-05T05:25:52.926Z,32.85
2022-08-05T05:28:20.122Z,33.41
2022-08-05T05:30:49.567Z,33.16
2022-08-05T05:33:23.434Z,33.31
2022-08-05T05:35:51.031Z,33.79
2022-08-05T05:38:26.965Z,33.86
2022-08-05T05:40:55.891Z,33.17
2022-08-05T05:43:56.536Z,33.64
2022-08-05T05:46:16.325Z,33.81
2022-08-05T05:48:47.729Z,33.93
2022-08-05T05:51:22.630Z,34.36
2022-08-05T05:53:57.239Z,34.97
2022-08-05T05:56:32.708Z,33.85
2022-08-05T05:59:05.407Z,33.20
2022-08-05T06:01:38.912Z,32.49
2022-08-05T06:04:08.305Z,33.18
2022-08-05T06:06:41.821Z,34.09
2022-08-05T06:09:09.542Z,32.90
2022-08-05T06:11:59.527Z,32.94
2022-08-05T06:14:33.253Z,34.16
2022-08-05T06:17:22.608Z,32.42
2022-08-05T06:19:57.190Z,33.30
2022-08-05T06:22:30.406Z,34.22
2022-08-05T06:25:01.882Z,33.97
2022-08-05T06:28:10.411Z,32.96
2022-08-05T06:30:36.419Z,33.54
2022-08-05T06:33:03.607Z,33.86
2022-08-05T06:36:07.160Z,33.79
2022-08-05T06:38:18.694Z,34.35
2022-08-05T06:41:04.411Z,34.54
2022-08-05T06:43:51.769Z,34.92
2022-08-05T06:46:19.130Z,34.82
2022-08-05T06:48:56.557Z,34.34
2022-08-05T06:51:30.263Z,33.79
2022-08-05T06:53:59.019Z,33.32
2022-08-05T06:56:27.107Z,34.50
2022-08-05T06:58:54.753Z,33.58
2022-08-05T07:01:22.821Z,33.94
2022-08-05T07:03:50.154Z,34.13
2022-08-05T07:06:20.615Z,34.51
2022-08-05T07:08:51.778Z,34.28
2022-08-05T07:11:25.350Z,33.36
2022-08-05T07:14:15.588Z,32.65
2022-08-05T07:18:00.755Z,32.35
2022-08-05T07:20:16.857Z,34.36
2022-08-05T07:22:29.188Z,35.33
2022-08-05T07:24:58.528Z,35.89
2022-08-05T07:27:27.575Z,35.52
2022-08-05T07:30:27.725Z,35.93
2022-08-05T07:32:57.717Z,34.38
2022-08-05T07:36:03.520Z,35.36
2022-08-05T07:38:26.337Z,35.44
2022-08-05T07:41:16.784Z,35.49
2022-08-05T07:43:46.941Z,34.62
2022-08-05T07:46:24.274Z,34.06
2022-08-05T07:49:03.505Z,35.13
2022-08-05T07:51:41.130Z,35.04
2022-08-05T07:54:26.413Z,35.80
2022-08-05T07:57:13.312Z,34.63
2022-08-05T07:59:41.517Z,34.79
2022-08-05T08:02:15.958Z,34.33
2022-08-05T08:04:48.556Z,34.90
2022-08-05T08:07:17.871Z,35.60
2022-08-05T08:09:46.074Z,35.88
2022-08-05T08:12:33.267Z,34.81
2022-08-05T08:15:04.531Z,35.00
2022-08-05T08:17:32.441Z,35.00
2022-08-05T08:20:22.413Z,35.36
2022-08-05T08:22:54.234Z,35.83
2022-08-05T08:25:26.875Z,35.27
2022-08-05T08:28:18.044Z,34.71
2022-08-05T08:30:47.807Z,34.85
2022-08-05T08:33:17.622Z,35.06
2022-08-05T08:35:52.817Z,34.95
2022-08-05T08:38:35.363Z,35.60
2022-08-05T08:41:05.070Z,35.19
2022-08-05T08:45:16.431Z,35.10
2022-08-05T08:46:21.340Z,36.11
2022-08-05T08:49:06.329Z,36.23
2022-08-05T08:52:04.247Z,37.07
2022-08-05T08:54:27.395Z,36.85
2022-08-05T08:56:56.425Z,37.14
2022-08-05T08:59:27.904Z,37.09
2022-08-05T09:02:02.112Z,37.13
2022-08-05T09:04:31.578Z,35.98
2022-08-05T09:06:58.891Z,36.81
2022-08-05T09:09:34.861Z,36.59
2022-08-05T09:12:20.228Z,37.23
2022-08-05T09:14:58.275Z,37.66
2022-08-05T09:17:40.698Z,37.15
2022-08-05T09:20:11.158Z,35.81
2022-08-05T09:23:04.855Z,35.91
2022-08-05T09:26:00.854Z,35.85
2022-08-05T09:28:23.394Z,36.69
2022-08-05T09:30:55.171Z,37.53
2022-08-05T09:33:23.648Z,36.96
2022-08-05T09:36:11.841Z,37.07
2022-08-05T09:38:56.252Z,36.28
2022-08-05T09:41:24.717Z,37.01
2022-08-05T09:43:53.214Z,36.12
2022-08-05T09:46:27.457Z,36.63
2022-08-05T09:49:08.024Z,35.65
2022-08-05T09:51:49.385Z,36.49
2022-08-05T09:54:21.350Z,36.56
2022-08-05T09:56:57.349Z,36.16
2022-08-05T09:59:27.569Z,36.16
2022-08-05T10:01:58.530Z,36.97
2022-08-05T10:04:34.954Z,36.99
2022-08-05T10:07:06.073Z,37.64
2022-08-05T10:10:14.460Z,38.26
2022-08-05T10:12:49.731Z,38.45
2022-08-05T10:15:20.374Z,38.40
2022-08-05T10:18:03.491Z,38.75
2022-08-05T10:20:32.004Z,37.53
2022-08-05T10:23:01.053Z,38.34
2022-08-05T10:25:28.352Z,37.79
2022-08-05T10:28:13.936Z,38.50
2022-08-05T10:32:47.342Z,39.00
2022-08-05T10:33:35.150Z,39.11
2022-08-05T10:36:04.502Z,38.74
2022-08-05T10:38:33.334Z,39.74
2022-08-05T10:41:06.943Z,39.01
2022-08-05T10:43:47.393Z,39.54
2022-08-05T10:46:17.030Z,38.49
2022-08-05T10:48:52.762Z,39.41
2022-08-05T10:51:29.404Z,39.60
2022-08-05T10:53:58.505Z,39.93
2022-08-05T10:56:29.595Z,38.94
2022-08-05T10:59:07.303Z,38.41
2022-08-05T11:01:54.750Z,38.70
2022-08-05T11:04:30.920Z,39.08
2022-08-05T11:07:04.478Z,39.35
2022-08-05T11:09:45.770Z,38.50
2022-08-05T11:12:27.126Z,38.10
2022-08-05T11:15:20.222Z,38.77
2022-08-05T11:17:59.261Z,38.40
2022-08-05T11:20:39.286Z,39.41
2022-08-05T11:23:33.273Z,39.12
2022-08-05T11:26:11.921Z,38.78
2022-08-05T11:28:39.807Z,38.76
2022-08-05T11:31:07.684Z,38.96
2022-08-05T11:33:47.951Z,38.57
2022-08-05T11:36:34.723Z,38.62
2022-08-05T11:39:05.715Z,38.51
2022-08-05T11:41:54.641Z,37.34
2022-08-05T11:44:40.123Z,37.31
2022-08-05T11:47:14.186Z,38.66
2022-08-05T11:49:51.162Z,38.72
2022-08-05T11:52:29.386Z,38.56
2022-08-05T11:54:57.723Z,38.18
2022-08-05T11:57:30.708Z,39.04
2022-08-05T12:00:13.316Z,39.09
2022-08-05T12:02:40.493Z,39.66
2022-08-05T12:05:32.388Z,39.46
2022-08-05T12:08:09.770Z,39.17
2022-08-05T12:10:45.826Z,39.17
2022-08-05T12:13:28.091Z,38.37
2022-08-05T12:16:14.558Z,38.56
2022-08-05T12:18:49.477Z,38.67
2022-08-05T12:21:30.196Z,39.27
2022-08-05T12:24:04.877Z,39.82
2022-08-05T12:26:38.738Z,39.81
2022-08-05T12:29:09.539Z,40.40
2022-08-05T12:31:45.978Z,40.21
2022-08-05T12:34:21.382Z,40.29
2022-08-05T12:36:52.242Z,40.49
2022-08-05T12:39:19.552Z,40.20
2022-08-05T12:41:46.803Z,38.97
2022-08-05T12:44:21.563Z,39.01
2022-08-05T12:46:59.741Z,38.56
2022-08-05T12:50:03.936Z,38.90
2022-08-05T12:52:33.893Z,39.06
2022-08-05T12:55:23.625Z,39.30
2022-08-05T12:58:49.310Z,38.08
2022-08-05T13:01:59.948Z,38.87
2022-08-05T13:03:32.463Z,39.53
2022-08-05T13:06:01.486Z,40.22
2022-08-05T13:08:32.997Z,38.55
2022-08-05T13:11:01.125Z,39.64
2022-08-05T13:14:04.929Z,39.35
2022-08-05T13:16:17.092Z,39.98
2022-08-05T13:18:50.898Z,39.53
2022-08-05T13:21:18.336Z,38.49
2022-08-05T13:23:52.145Z,38.77
2022-08-05T13:26:24.079Z,38.19
2022-08-05T13:28:57.603Z,39.03
2022-08-05T13:31:33.714Z,38.58
2022-08-05T13:34:21.583Z,39.22
2022-08-05T13:36:51.113Z,38.09
2022-08-05T13:40:14.661Z,38.35
2022-08-05T13:42:05.932Z,38.61
2022-08-05T13:44:34.735Z,37.73
2022-08-05T13:47:08.403Z,38.94
2022-08-05T13:49:36.416Z,39.49
2022-08-05T13:52:10.609Z,39.81
2022-08-05T13:54:38.537Z,39.13
2022-08-05T13:57:06.975Z,39.26
2022-08-05T13:59:34.448Z,39.36
2022-08-05T14:02:03.645Z,39.94
2022-08-05T14:04:51.619Z,39.21
2022-08-05T14:07:59.920Z,39.61
2022-08-05T14:10:19.270Z,39.96
2022-08-05T14:12:55.462Z,38.85
2022-08-05T14:16:08.193Z,39.74
2022-08-05T14:18:17.591Z,38.58
2022-08-05T14:20:47.910Z,38.55
2022-08-05T14:23:24.076Z,38.83
2022-08-05T14:25:54.552Z,38.90
2022-08-05T14:28:26.501Z,38.89
2022-08-05T14:30:55.023Z,38.83
2022-08-05T14:33:23.343Z,38.08
2022-08-05T14:35:51.980Z,38.88
2022-08-05T14:38:32.979Z,37.68
2022-08-05T14:41:06.186Z,37.72
2022-08-05T14:43:51.593Z,39.14
2022-08-05T14:46:28.789Z,38.60
2022-08-05T14:48:57.774Z,39.86
2022-08-05T14:51:30.658Z,39.68
2022-08-05T14:54:06.925Z,39.87
2022-08-05T14:56:46.968Z,39.65
2022-08-05T14:59:15.909Z,39.75
2022-08-05T15:01:49.209Z,39.84
2022-08-05T15:04:20.735Z,39.83
2022-08-05T15:06:52.915Z,40.08
2022-08-05T15:09:51.890Z,39.36
2022-08-05T15:12:08.893Z,39.86
2022-08-05T15:14:48.266Z,40.57
2022-08-05T15:17:46.405Z,39.96
2022-08-05T15:20:06.102Z,40.24
2022-08-05T15:22:33.259Z,40.10
2022-08-05T15:25:00.700Z,40.95
2022-08-05T15:27:43.025Z,40.19
2022-08-05T15:30:19.334Z,39.43
2022-08-05T15:32:47.264Z,39.71
2022-08-05T15:35:17.030Z,39.96
2022-08-05T15:38:32.667Z,39.72
2022-08-05T15:41:03.432Z,39.86
2022-08-05T15:43:20.139Z,39.68
2022-08-05T15:46:00.818Z,39.82
2022-08-05T15:48:28.963Z,38.93
2022-08-05T15:50:56.584Z,39.09
2022-08-05T15:53:26.477Z,39.66
2022-08-05T15:56:09.138Z,39.61
2022-08-05T15:58:41.362Z,39.64
2022-08-05T16:01:17.134Z,39.25
2022-08-05T16:03:48.315Z,39.20
2022-08-05T16:06:16.095Z,39.53
2022-08-05T16:08:51.019Z,39.87
2022-08-05T16:11:42.900Z,40.04
2022-08-05T16:14:09.337Z,39.77
2022-08-05T16:16:36.530Z,38.60
2022-08-05T16:19:04.218Z,39.61
2022-08-05T16:22:00.277Z,39.74
2022-08-05T16:24:40.443Z,39.11
2022-08-05T16:27:07.286Z,39.32
2022-08-05T16:29:37.032Z,39.68
2022-08-05T16:32:06.409Z,39.83
2022-08-05T16:34:34.047Z,40.02
2022-08-05T16:37:01.218Z,39.71
2022-08-05T16:40:04.698Z,38.97
2022-08-05T16:42:19.450Z,38.77
2022-08-05T16:44:56.936Z,39.32
2022-08-05T16:47:29.130Z,39.42
2022-08-05T16:50:04.196Z,39.34
2022-08-05T16:52:33.501Z,39.57
2022-08-05T16:55:00.908Z,39.98
2022-08-05T16:57:53.658Z,39.69
2022-08-05T17:00:25.998Z,39.66
2022-08-05T17:03:02.938Z,39.83
2022-08-05T17:05:31.428Z,39.85
2022-08-05T17:07:59.257Z,39.70
2022-08-05T17:10:30.514Z,39.50
2022-08-05T17:12:58.411Z,39.73
2022-08-05T17:15:29.422Z,39.36
2022-08-05T17:18:14.323Z,39.27
2022-08-05T17:20:42.326Z,39.15
2022-08-05T17:24:02.953Z,39.20
2022-08-05T17:25:58.983Z,39.10
2022-08-05T17:28:26.263Z,38.81
2022-08-05T17:30:56.188Z,38.98
2022-08-05T17:33:23.729Z,38.92
2022-08-05T17:36:07.581Z,38.75
2022-08-05T17:38:37.717Z,38.92
2022-08-05T17:41:11.602Z,38.70
2022-08-05T17:43:55.709Z,38.52
2022-08-05T17:46:23.737Z,38.31
2022-08-05T17:48:50.900Z,38.54
2022-08-05T17:51:21.354Z,38.24
2022-08-05T17:53:50.701Z,38.35
2022-08-05T17:56:22.837Z,38.32
2022-08-05T17:58:51.096Z,38.52
2022-08-05T18:01:18.685Z,38.52
2022-08-05T18:03:58.444Z,38.52
2022-08-05T18:06:31.078Z,38.49
2022-08-05T18:08:58.860Z,38.52
2022-08-05T18:11:32.485Z,38.57
2022-08-05T18:14:03.547Z,38.53
2022-08-05T18:16:31.827Z,38.48
2022-08-05T18:18:58.966Z,38.50
2022-08-05T18:21:28.157Z,38.37
2022-08-05T18:24:14.447Z,38.35
2022-08-05T18:26:42.077Z,38.26
2022-08-05T18:29:11.125Z,38.25
2022-08-05T18:31:38.531Z,38.17
2022-08-05T18:34:12.247Z,38.12
2022-08-05T18:36:41.350Z,38.04
2022-08-05T18:39:42.314Z,38.03
2022-08-05T18:42:06.139Z,37.93
2022-08-05T18:44:48.963Z,37.87
2022-08-05T18:47:18.676Z,37.90
2022-08-05T18:50:10.780Z,37.86
2022-08-05T18:52:50.795Z,37.85
2022-08-05T18:55:19.524Z,37.73
2022-08-05T18:57:53.518Z,37.68
2022-08-05T19:00:28.580Z,37.59
2022-08-05T19:02:57.532Z,37.58
2022-08-05T19:06:12.566Z,37.47
2022-08-05T19:08:18.734Z,37.38
2022-08-05T19:10:46.388Z,37.44
2022-08-05T19:13:15.936Z,37.28
2022-08-05T19:15:58.876Z,37.34
2022-08-05T19:18:29.110Z,37.29
2022-08-05T19:20:56.632Z,37.22
2022-08-05T19:24:07.341Z,37.19
2022-08-05T19:26:12.136Z,37.11
2022-08-05T19:28:43.283Z,37.00
2022-08-05T19:31:13.482Z,36.87
2022-08-05T19:33:48.387Z,36.70
2022-08-05T19:36:24.185Z,36.60
2022-08-05T19:38:53.400Z,36.53
2022-08-05T19:41:21.906Z,36.49
2022-08-05T19:44:05.445Z,36.61
2022-08-05T19:46:39.382Z,36.76
2022-08-05T19:49:25.217Z,36.67
2022-08-05T19:52:06.181Z,36.66
2022-08-05T19:54:41.239Z,36.67
2022-08-05T19:57:10.137Z,36.45
2022-08-05T19:59:55.552Z,36.36
2022-08-05T20:02:27.264Z,36.27
2022-08-05T20:04:58.530Z,36.42
2022-08-05T20:07:47.157Z,36.44
2022-08-05T20:10:17.390Z,36.33
2022-08-05T20:12:48.122Z,36.11
2022-08-05T20:15:23.082Z,36.24
2022-08-05T20:18:10.532Z,36.30
2022-08-05T20:20:56.589Z,36.02
2022-08-05T20:23:40.480Z,36.06
2022-08-05T20:26:15.251Z,35.87
2022-08-05T20:28:44.217Z,35.77
2022-08-05T20:31:12.209Z,36.02
2022-08-05T20:33:42.465Z,36.02
2022-08-05T20:36:10.115Z,35.99
2022-08-05T20:38:39.221Z,36.00
2022-08-05T20:41:24.025Z,35.96
2022-08-05T20:43:58.744Z,35.53
2022-08-05T20:46:28.738Z,35.73
2022-08-05T20:48:56.156Z,35.36
2022-08-05T20:51:23.749Z,35.32
2022-08-05T20:53:56.360Z,35.32
2022-08-05T20:56:28.100Z,35.37
2022-08-05T20:58:56.245Z,35.01
2022-08-05T21:01:38.616Z,35.16
2022-08-05T21:04:10.323Z,35.11
2022-08-05T21:06:45.147Z,34.99
2022-08-05T21:09:15.987Z,35.05
2022-08-05T21:12:06.970Z,35.11
2022-08-05T21:14:34.785Z,35.01
2022-08-05T21:17:05.396Z,35.22
2022-08-05T21:19:46.898Z,35.14
2022-08-05T21:22:18.316Z,35.05
2022-08-05T21:24:49.020Z,35.12
2022-08-05T21:27:25.412Z,35.10
2022-08-05T21:29:57.660Z,34.98
2022-08-05T21:32:27.218Z,34.65
2022-08-05T21:35:08.421Z,34.98
2022-08-05T21:37:46.998Z,34.85
2022-08-05T21:40:16.565Z,35.05
2022-08-05T21:42:45.630Z,35.05
2022-08-05T21:45:17.621Z,35.08
2022-08-05T21:47:56.254Z,35.10
2022-08-05T21:50:25.495Z,35.21
2022-08-05T21:52:53.400Z,35.05
2022-08-05T21:55:42.787Z,34.93
2022-08-05T21:58:10.274Z,34.55
2022-08-05T22:00:40.031Z,34.49
2022-08-05T22:03:09.927Z,34.67
2022-08-05T22:05:48.781Z,34.35
2022-08-05T22:08:22.515Z,34.47
2022-08-05T22:10:53.538Z,34.29
2022-08-05T22:14:19.710Z,34.40
2022-08-05T22:16:32.305Z,34.16
2022-08-05T22:18:58.707Z,34.15
2022-08-05T22:21:26.129Z,34.16
2022-08-05T22:24:13.205Z,34.32
2022-08-05T22:27:18.355Z,34.14
2022-08-05T22:29:46.069Z,34.14
2022-08-05T22:32:17.361Z,34.17
2022-08-05T22:34:50.180Z,34.22
2022-08-05T22:37:17.617Z,34.13
2022-08-05T22:39:45.568Z,34.23
2022-08-05T22:42:25.274Z,34.14
2022-08-05T22:44:56.396Z,34.09
2022-08-05T22:47:29.347Z,34.05
2022-08-05T22:50:17.597Z,33.97
2022-08-05T22:52:49.028Z,33.82
2022-08-05T22:55:19.221Z,33.82
2022-08-05T22:57:49.010Z,33.67
2022-08-05T23:00:18.330Z,33.84
2022-08-05T23:02:48.555Z,33.74
2022-08-05T23:05:15.954Z,33.90
2022-08-05T23:07:44.814Z,33.93
2022-08-05T23:10:13.202Z,33.81
2022-08-05T23:12:40.423Z,33.84
2022-08-05T23:15:11.909Z,33.65
2022-08-05T23:18:00.689Z,33.81
2022-08-05T23:20:26.561Z,33.83
2022-08-05T23:22:55.821Z,33.83
2022-08-05T23:25:53.204Z,33.51
2022-08-05T23:28:11.977Z,33.69
2022-08-05T23:30:39.772Z,33.85
2022-08-05T23:33:16.347Z,33.92
2022-08-05T23:35:56.059Z,33.90
2022-08-05T23:38:26.071Z,33.99
2022-08-05T23:40:54.339Z,34.00
2022-08-05T23:43:25.350Z,34.03
2022-08-05T23:46:19.994Z,33.85
2022-08-05T23:48:59.943Z,33.73
2022-08-05T23:51:54.367Z,33.73
2022-08-05T23:54:25.247Z,33.73
2022-08-05T23:56:55.028Z,33.78
2022-08-05T23:59:22.947Z,33.81
